createdAt,value
2018-08-25T00:01:34.606Z,13.50
2018-08-25T00:04:03.228Z,13.30
2018-08-25T00:06:31.866Z,10.53
2018-08-25T00:09:00.361Z,13.13
2018-08-25T00:11:28.850Z,14.90
2018-08-25T00:13:57.268Z,11.73
2018-08-25T00:16:25.721Z,14.17
2018-08-25T00:18:54.308Z,13.37
2018-08-25T00:21:22.769Z,10.23
2018-08-25T00:23:51.303Z,13.70
2018-08-25T00:26:19.723Z,11.67
2018-08-25T00:28:48.189Z,13.30
2018-08-25T00:31:22.071Z,14.10
2018-08-25T00:33:51.028Z,11.63
2018-08-25T00:36:19.467Z,12.33
2018-08-25T00:38:48.260Z,10.73
2018-08-25T00:41:16.760Z,12.07
2018-08-25T00:43:45.211Z,12.47
2018-08-25T00:46:13.673Z,15.50
2018-08-25T00:48:42.179Z,10.77
2018-08-25T00:51:10.611Z,11.30
2018-08-25T00:53:39.075Z,12.93
2018-08-25T00:56:07.549Z,10.63
2018-08-25T00:58:36.098Z,14.13
2018-08-25T01:01:04.728Z,13.87
2018-08-25T01:03:33.148Z,12.27
2018-08-25T01:06:01.840Z,13.13
2018-08-25T01:08:30.298Z,12.50
2018-08-25T01:10:58.771Z,13.10
2018-08-25T01:13:27.229Z,10.90
2018-08-25T01:15:55.701Z,14.57
2018-08-25T01:18:24.127Z,13.00
2018-08-25T01:20:52.607Z,11.23
2018-08-25T01:23:21.058Z,13.07
2018-08-25T01:25:49.678Z,13.43
2018-08-25T01:28:18.154Z,12.20
2018-08-25T01:30:46.625Z,11.10
2018-08-25T01:33:15.114Z,11.60
2018-08-25T01:35:43.674Z,13.73
2018-08-25T01:38:12.446Z,13.53
2018-08-25T01:40:41.079Z,11.73
2018-08-25T01:43:09.571Z,12.90
2018-08-25T01:45:38.004Z,12.00
2018-08-25T01:48:06.787Z,13.10
2018-08-25T01:50:35.226Z,10.37
2018-08-25T01:53:03.682Z,12.57
2018-08-25T01:55:32.128Z,12.20
2018-08-25T01:58:00.598Z,14.73
2018-08-25T02:00:29.092Z,10.73
2018-08-25T02:02:57.621Z,12.20
2018-08-25T02:05:29.900Z,12.10
2018-08-25T02:07:59.590Z,10.50
2018-08-25T02:10:28.116Z,13.20
2018-08-25T02:12:56.903Z,12.33
2018-08-25T02:15:25.473Z,13.70
2018-08-25T02:17:53.948Z,12.43
2018-08-25T02:20:22.443Z,11.40
2018-08-25T02:22:50.979Z,12.17
2018-08-25T02:25:19.427Z,13.07
2018-08-25T02:27:47.864Z,9.17
2018-08-25T02:30:16.388Z,10.47
2018-08-25T02:32:44.998Z,9.47
2018-08-25T02:35:14.493Z,11.10
2018-08-25T02:37:42.977Z,10.93
2018-08-25T02:40:11.714Z,9.90
2018-08-25T02:42:40.354Z,9.00
2018-08-25T02:45:08.852Z,10.90
2018-08-25T02:47:37.305Z,9.30
2018-08-25T02:50:05.742Z,9.30
2018-08-25T02:52:34.206Z,11.43
2018-08-25T02:55:02.666Z,9.60
2018-08-25T02:57:31.150Z,10.80
2018-08-25T02:59:59.573Z,10.10
2018-08-25T03:02:28.042Z,9.97
2018-08-25T03:04:56.618Z,9.47
2018-08-25T03:07:25.115Z,10.20
2018-08-25T03:09:53.625Z,11.60
2018-08-25T03:12:22.071Z,11.23
2018-08-25T03:14:50.499Z,10.33
2018-08-25T03:17:18.934Z,10.07
2018-08-25T03:19:47.357Z,9.53
2018-08-25T03:22:15.802Z,12.60
2018-08-25T03:24:44.218Z,11.43
2018-08-25T03:27:13.014Z,8.77
2018-08-25T03:29:41.453Z,9.27
2018-08-25T03:32:09.928Z,11.40
2018-08-25T03:34:38.409Z,8.83
2018-08-25T03:37:06.874Z,12.57
2018-08-25T03:39:35.311Z,11.23
2018-08-25T03:42:03.798Z,11.00
2018-08-25T03:44:33.331Z,10.60
2018-08-25T03:47:01.895Z,8.40
2018-08-25T03:49:30.288Z,12.30
2018-08-25T03:51:58.776Z,9.53
2018-08-25T03:54:27.362Z,10.23
2018-08-25T03:56:55.844Z,8.00
2018-08-25T03:59:24.372Z,11.07
2018-08-25T04:01:52.952Z,6.67
2018-08-25T04:04:21.469Z,8.57
2018-08-25T04:06:49.903Z,11.47
2018-08-25T04:09:18.405Z,10.57
2018-08-25T04:11:46.917Z,11.20
2018-08-25T04:14:15.429Z,9.27
2018-08-25T04:16:43.847Z,8.50
2018-08-25T04:19:15.697Z,8.30
2018-08-25T04:21:44.142Z,12.37
2018-08-25T04:24:12.618Z,8.73
2018-08-25T04:26:41.198Z,9.00
2018-08-25T04:29:09.642Z,10.90
2018-08-25T04:31:38.054Z,8.53
2018-08-25T04:34:06.769Z,9.70
2018-08-25T04:36:35.327Z,8.60
2018-08-25T04:39:05.134Z,8.80
2018-08-25T04:41:33.582Z,8.57
2018-08-25T04:44:02.428Z,11.67
2018-08-25T04:46:30.848Z,8.73
2018-08-25T04:48:59.381Z,10.00
2018-08-25T04:51:27.843Z,11.10
2018-08-25T04:53:56.295Z,8.90
2018-08-25T04:56:24.711Z,10.07
2018-08-25T04:58:53.147Z,9.17
2018-08-25T05:01:21.600Z,14.03
2018-08-25T05:03:50.089Z,10.27
2018-08-25T05:06:18.503Z,10.50
2018-08-25T05:08:46.939Z,8.07
2018-08-25T05:11:15.345Z,11.47
2018-08-25T05:13:43.800Z,10.07
2018-08-25T05:16:12.283Z,9.53
2018-08-25T05:18:40.726Z,11.73
2018-08-25T05:21:09.146Z,8.40
2018-08-25T05:23:37.643Z,9.03
2018-08-25T05:26:06.115Z,9.27
2018-08-25T05:28:34.579Z,7.10
2018-08-25T05:31:03.063Z,7.77
2018-08-25T05:33:31.544Z,9.10
2018-08-25T05:36:00.554Z,6.93
2018-08-25T05:38:29.094Z,8.90
2018-08-25T05:40:57.514Z,9.07
2018-08-25T05:43:25.952Z,9.13
2018-08-25T05:45:54.463Z,8.77
2018-08-25T05:48:22.945Z,10.03
2018-08-25T05:50:51.424Z,8.63
2018-08-25T05:53:19.943Z,6.90
2018-08-25T05:55:48.371Z,9.30
2018-08-25T05:58:16.800Z,8.87
2018-08-25T06:00:45.261Z,8.23
2018-08-25T06:03:13.675Z,6.83
2018-08-25T06:05:42.103Z,8.97
2018-08-25T06:08:10.554Z,8.70
2018-08-25T06:10:39.040Z,10.83
2018-08-25T06:13:07.488Z,7.13
2018-08-25T06:15:35.981Z,8.67
2018-08-25T06:18:04.486Z,8.67
2018-08-25T06:20:32.978Z,7.70
2018-08-25T06:23:01.467Z,7.70
2018-08-25T06:25:29.987Z,9.83
2018-08-25T06:27:59.141Z,7.30
2018-08-25T06:30:27.703Z,6.87
2018-08-25T06:32:56.195Z,7.43
2018-08-25T06:35:24.667Z,7.53
2018-08-25T06:37:53.094Z,7.80
2018-08-25T06:40:21.545Z,10.23
2018-08-25T06:42:49.965Z,9.20
2018-08-25T06:45:18.574Z,8.67
2018-08-25T06:47:47.012Z,9.57
2018-08-25T06:50:15.476Z,7.73
2018-08-25T06:52:44.191Z,7.77
2018-08-25T06:55:13.628Z,8.67
2018-08-25T06:57:42.034Z,7.13
2018-08-25T07:00:10.567Z,8.50
2018-08-25T07:02:39.181Z,7.13
2018-08-25T07:05:07.615Z,8.53
2018-08-25T07:07:36.324Z,12.97
2018-08-25T07:10:04.897Z,10.40
2018-08-25T07:12:33.330Z,9.20
2018-08-25T07:15:01.782Z,6.77
2018-08-25T07:17:30.237Z,7.97
2018-08-25T07:19:58.692Z,8.30
2018-08-25T07:22:27.133Z,9.10
2018-08-25T07:24:55.837Z,8.00
2018-08-25T07:27:30.996Z,8.50
2018-08-25T07:29:59.460Z,7.23
2018-08-25T07:32:27.990Z,6.43
2018-08-25T07:34:56.435Z,7.20
2018-08-25T07:37:24.988Z,5.90
2018-08-25T07:39:53.472Z,7.30
2018-08-25T07:42:21.898Z,6.33
2018-08-25T07:44:50.359Z,7.83
2018-08-25T07:47:18.864Z,6.97
2018-08-25T07:49:47.357Z,8.63
2018-08-25T07:52:15.892Z,6.57
2018-08-25T07:54:44.577Z,6.23
2018-08-25T07:57:13.026Z,7.53
2018-08-25T07:59:41.443Z,7.63
2018-08-25T08:02:09.932Z,7.17
2018-08-25T08:04:40.236Z,7.17
2018-08-25T08:07:08.683Z,4.80
2018-08-25T08:09:37.118Z,5.17
2018-08-25T08:12:05.807Z,9.80
2018-08-25T08:14:34.630Z,7.53
2018-08-25T08:17:03.609Z,5.83
2018-08-25T08:19:32.067Z,7.03
2018-08-25T08:22:00.499Z,7.63
2018-08-25T08:24:28.941Z,4.83
2018-08-25T08:26:57.371Z,7.33
2018-08-25T08:29:25.774Z,6.20
2018-08-25T08:31:54.247Z,7.23
2018-08-25T08:34:22.662Z,6.03
2018-08-25T08:36:51.156Z,6.13
2018-08-25T08:39:19.588Z,5.10
2018-08-25T08:41:48.038Z,8.73
2018-08-25T08:44:16.471Z,7.10
2018-08-25T08:46:44.903Z,4.93
2018-08-25T08:49:13.363Z,8.33
2018-08-25T08:51:41.821Z,6.00
2018-08-25T08:54:10.255Z,7.57
2018-08-25T08:56:38.742Z,6.33
2018-08-25T08:59:07.407Z,7.93
2018-08-25T09:01:36.969Z,7.53
2018-08-25T09:04:06.523Z,5.83
2018-08-25T09:06:34.998Z,5.93
2018-08-25T09:09:04.226Z,7.97
2018-08-25T09:11:32.769Z,7.43
2018-08-25T09:14:01.349Z,6.77
2018-08-25T09:16:29.872Z,4.57
2018-08-25T09:18:58.302Z,6.50
2018-08-25T09:21:26.748Z,8.17
2018-08-25T09:23:55.383Z,8.97
2018-08-25T09:26:23.843Z,9.37
2018-08-25T09:28:52.403Z,6.23
2018-08-25T09:31:20.869Z,6.57
2018-08-25T09:33:49.637Z,7.13
2018-08-25T09:36:18.205Z,8.37
2018-08-25T09:38:46.817Z,6.17
2018-08-25T09:41:15.263Z,5.47
2018-08-25T09:43:44.071Z,6.40
2018-08-25T09:46:12.833Z,6.63
2018-08-25T09:48:41.263Z,5.20
2018-08-25T09:51:09.823Z,12.23
2018-08-25T09:53:38.744Z,7.87
2018-08-25T09:56:07.434Z,4.67
2018-08-25T09:58:35.996Z,7.60
2018-08-25T10:01:06.393Z,5.33
2018-08-25T10:03:35.724Z,4.90
2018-08-25T10:06:04.267Z,4.27
2018-08-25T10:08:32.701Z,3.97
2018-08-25T10:11:01.197Z,7.10
2018-08-25T10:13:30.008Z,8.50
2018-08-25T10:15:58.442Z,4.87
2018-08-25T10:18:26.963Z,10.70
2018-08-25T10:20:55.433Z,3.93
2018-08-25T10:23:24.008Z,8.20
2018-08-25T10:25:52.657Z,8.33
2018-08-25T10:28:21.162Z,3.10
2018-08-25T10:30:49.627Z,6.07
2018-08-25T10:33:18.049Z,6.07
2018-08-25T10:35:46.518Z,3.33
2018-08-25T10:38:15.174Z,5.47
2018-08-25T10:40:43.610Z,6.07
2018-08-25T10:43:12.031Z,6.53
2018-08-25T10:45:40.834Z,5.13
2018-08-25T10:48:15.840Z,4.53
2018-08-25T10:50:44.566Z,5.70
2018-08-25T10:53:13.001Z,6.50
2018-08-25T10:55:41.535Z,4.07
2018-08-25T10:58:10.011Z,4.43
2018-08-25T11:00:38.704Z,4.03
2018-08-25T11:03:07.401Z,2.67
2018-08-25T11:05:35.903Z,5.93
2018-08-25T11:08:04.308Z,6.27
2018-08-25T11:10:33.722Z,9.37
2018-08-25T11:13:02.775Z,12.57
2018-08-25T11:15:31.246Z,6.37
2018-08-25T11:17:59.758Z,4.23
2018-08-25T11:20:31.395Z,6.93
2018-08-25T11:22:59.908Z,7.37
2018-08-25T11:25:28.572Z,7.23
2018-08-25T11:27:57.021Z,6.10
2018-08-25T11:30:25.461Z,5.03
2018-08-25T11:32:54.808Z,6.07
2018-08-25T11:35:23.319Z,9.73
2018-08-25T11:37:51.849Z,6.00
2018-08-25T11:40:20.566Z,5.73
2018-08-25T11:42:49.199Z,6.60
2018-08-25T11:45:17.656Z,8.30
2018-08-25T11:47:46.144Z,7.37
2018-08-25T11:50:14.703Z,7.77
2018-08-25T11:52:44.078Z,6.33
2018-08-25T11:55:12.504Z,7.80
2018-08-25T11:57:40.938Z,4.20
2018-08-25T12:00:09.420Z,4.57
2018-08-25T12:02:37.970Z,7.23
2018-08-25T12:05:06.612Z,5.03
2018-08-25T12:07:35.048Z,7.50
2018-08-25T12:10:03.902Z,5.97
2018-08-25T12:12:32.490Z,4.57
2018-08-25T12:15:01.424Z,4.37
2018-08-25T12:17:30.016Z,6.10
2018-08-25T12:19:58.550Z,7.10
2018-08-25T12:22:26.933Z,5.77
2018-08-25T12:24:55.351Z,9.50
2018-08-25T12:27:23.772Z,4.83
2018-08-25T12:29:52.171Z,5.30
2018-08-25T12:32:20.580Z,7.00
2018-08-25T12:34:49.054Z,9.27
2018-08-25T12:37:17.498Z,9.20
2018-08-25T12:39:45.959Z,6.47
2018-08-25T12:42:14.453Z,5.27
2018-08-25T12:44:42.882Z,5.23
2018-08-25T12:47:11.339Z,7.70
2018-08-25T12:49:39.795Z,7.07
2018-08-25T12:52:08.459Z,6.90
2018-08-25T12:54:36.867Z,6.10
2018-08-25T12:57:05.708Z,8.53
2018-08-25T12:59:34.140Z,5.23
2018-08-25T13:02:02.726Z,8.67
2018-08-25T13:04:31.209Z,5.97
2018-08-25T13:06:59.645Z,7.13
2018-08-25T13:09:28.074Z,5.13
2018-08-25T13:11:56.548Z,6.90
2018-08-25T13:14:24.975Z,5.47
2018-08-25T13:16:53.483Z,9.87
2018-08-25T13:19:21.959Z,8.07
2018-08-25T13:21:50.543Z,7.23
2018-08-25T13:24:19.195Z,9.90
2018-08-25T13:26:47.651Z,9.17
2018-08-25T13:29:16.276Z,8.80
2018-08-25T13:31:45.109Z,6.30
2018-08-25T13:34:13.780Z,6.53
2018-08-25T13:36:42.322Z,5.43
2018-08-25T13:39:11.918Z,6.17
2018-08-25T13:41:40.914Z,7.20
2018-08-25T13:44:10.739Z,5.07
2018-08-25T13:46:39.320Z,6.97
2018-08-25T13:49:07.808Z,7.17
2018-08-25T13:51:36.694Z,7.30
2018-08-25T13:54:05.141Z,6.67
2018-08-25T13:56:33.582Z,7.60
2018-08-25T13:59:02.047Z,6.53
2018-08-25T14:01:30.494Z,7.93
2018-08-25T14:03:58.960Z,9.40
2018-08-25T14:06:27.411Z,7.83
2018-08-25T14:08:56.703Z,7.47
2018-08-25T14:11:25.350Z,9.10
2018-08-25T14:13:53.855Z,7.70
2018-08-25T14:16:22.369Z,5.27
2018-08-25T14:18:51.070Z,7.17
2018-08-25T14:21:19.587Z,6.03
2018-08-25T14:23:48.024Z,6.30
2018-08-25T14:26:16.505Z,8.07
2018-08-25T14:28:45.048Z,8.27
2018-08-25T14:31:13.632Z,5.90
2018-08-25T14:33:42.093Z,4.43
2018-08-25T14:36:10.605Z,4.53
2018-08-25T14:38:39.585Z,5.07
2018-08-25T14:41:08.027Z,6.30
2018-08-25T14:43:36.568Z,3.83
2018-08-25T14:46:05.135Z,6.23
2018-08-25T14:48:33.602Z,3.70
2018-08-25T14:51:02.150Z,3.70
2018-08-25T14:53:30.745Z,3.60
2018-08-25T14:55:59.144Z,6.60
2018-08-25T14:58:28.007Z,6.03
2018-08-25T15:00:56.570Z,4.97
2018-08-25T15:03:25.154Z,4.03
2018-08-25T15:05:53.569Z,7.53
2018-08-25T15:08:22.036Z,4.63
2018-08-25T15:10:50.517Z,4.50
2018-08-25T15:13:18.951Z,3.57
2018-08-25T15:15:47.570Z,6.40
2018-08-25T15:18:16.163Z,5.60
2018-08-25T15:20:44.719Z,4.63
2018-08-25T15:23:13.149Z,4.93
2018-08-25T15:25:41.563Z,4.50
2018-08-25T15:28:10.233Z,3.47
2018-08-25T15:30:38.691Z,3.17
2018-08-25T15:33:07.242Z,4.23
2018-08-25T15:35:35.706Z,4.23
2018-08-25T15:38:04.375Z,6.83
2018-08-25T15:40:33.014Z,3.37
2018-08-25T15:43:01.548Z,4.47
2018-08-25T15:45:30.005Z,3.27
2018-08-25T15:47:58.487Z,5.70
2018-08-25T15:50:27.059Z,5.40
2018-08-25T15:52:55.563Z,8.07
2018-08-25T15:55:24.051Z,5.73
2018-08-25T15:57:52.669Z,5.80
2018-08-25T16:00:21.262Z,5.00
2018-08-25T16:02:49.970Z,4.63
2018-08-25T16:05:18.438Z,6.90
2018-08-25T16:07:46.843Z,4.37
2018-08-25T16:10:15.424Z,6.10
2018-08-25T16:12:43.925Z,5.77
2018-08-25T16:15:12.517Z,5.43
2018-08-25T16:17:41.098Z,9.53
2018-08-25T16:20:09.661Z,5.37
2018-08-25T16:22:38.338Z,4.40
2018-08-25T16:25:07.072Z,6.07
2018-08-25T16:27:35.642Z,5.27
2018-08-25T16:30:06.970Z,2.57
2018-08-25T16:32:35.550Z,4.80
2018-08-25T16:35:04.403Z,5.27
2018-08-25T16:37:33.274Z,6.73
2018-08-25T16:40:02.294Z,7.70
2018-08-25T16:42:30.839Z,4.77
2018-08-25T16:44:59.268Z,4.67
2018-08-25T16:47:27.742Z,7.27
2018-08-25T16:49:56.168Z,3.83
2018-08-25T16:52:24.641Z,7.50
2018-08-25T16:54:53.071Z,5.07
2018-08-25T16:57:21.526Z,4.10
2018-08-25T16:59:50.007Z,5.10
2018-08-25T17:02:18.429Z,5.33
2018-08-25T17:04:47.285Z,4.53
2018-08-25T17:07:16.094Z,5.10
2018-08-25T17:09:44.578Z,7.93
2018-08-25T17:12:13.007Z,6.43
2018-08-25T17:14:41.495Z,7.57
2018-08-25T17:17:10.005Z,4.70
2018-08-25T17:19:38.455Z,6.63
2018-08-25T17:22:06.960Z,4.93
2018-08-25T17:24:35.457Z,4.47
2018-08-25T17:27:03.967Z,7.33
2018-08-25T17:29:32.567Z,8.00
2018-08-25T17:32:01.529Z,6.10
2018-08-25T17:34:30.083Z,6.33
2018-08-25T17:36:58.936Z,6.03
2018-08-25T17:39:27.402Z,5.13
2018-08-25T17:41:55.869Z,6.97
2018-08-25T17:44:24.356Z,7.47
2018-08-25T17:46:52.851Z,5.97
2018-08-25T17:49:21.346Z,3.63
2018-08-25T17:51:50.146Z,6.10
2018-08-25T17:54:18.864Z,6.00
2018-08-25T17:56:47.341Z,6.93
2018-08-25T17:59:15.993Z,7.67
2018-08-25T18:01:44.644Z,4.63
2018-08-25T18:04:13.165Z,7.93
2018-08-25T18:06:41.671Z,6.67
2018-08-25T18:09:10.125Z,15.17
2018-08-25T18:11:38.568Z,11.47
2018-08-25T18:14:07.123Z,19.37
2018-08-25T18:16:35.547Z,9.90
2018-08-25T18:19:03.984Z,12.30
2018-08-25T18:21:32.795Z,9.50
2018-08-25T18:24:01.250Z,7.33
2018-08-25T18:26:29.964Z,7.43
2018-08-25T18:28:58.469Z,3.33
2018-08-25T18:31:26.983Z,5.13
2018-08-25T18:33:55.435Z,5.27
2018-08-25T18:36:23.905Z,7.27
2018-08-25T18:38:52.395Z,5.53
2018-08-25T18:41:20.941Z,5.10
2018-08-25T18:43:49.378Z,4.03
2018-08-25T18:46:18.227Z,12.13
2018-08-25T18:48:46.714Z,5.23
2018-08-25T18:51:15.318Z,6.57
2018-08-25T18:53:43.785Z,7.87
2018-08-25T18:56:12.300Z,6.47
2018-08-25T18:58:40.771Z,5.73
2018-08-25T19:01:09.243Z,7.20
2018-08-25T19:03:37.757Z,5.73
2018-08-25T19:06:06.219Z,4.13
2018-08-25T19:08:34.710Z,4.20
2018-08-25T19:11:03.489Z,5.97
2018-08-25T19:13:32.045Z,7.63
2018-08-25T19:16:00.526Z,3.73
2018-08-25T19:18:29.039Z,3.47
2018-08-25T19:20:57.476Z,3.93
2018-08-25T19:23:26.270Z,3.37
2018-08-25T19:25:55.292Z,4.13
2018-08-25T19:28:23.872Z,5.40
2018-08-25T19:30:52.680Z,3.90
2018-08-25T19:33:21.218Z,4.43
2018-08-25T19:35:49.762Z,4.93
2018-08-25T19:38:18.190Z,4.43
2018-08-25T19:40:46.708Z,5.80
2018-08-25T19:43:15.122Z,3.70
2018-08-25T19:45:43.673Z,4.17
2018-08-25T19:48:12.182Z,5.60
2018-08-25T19:50:40.715Z,4.33
2018-08-25T19:53:09.241Z,3.77
2018-08-25T19:55:37.843Z,4.70
2018-08-25T19:58:06.282Z,3.27
2018-08-25T20:00:34.972Z,3.47
2018-08-25T20:03:03.420Z,4.00
2018-08-25T20:05:32.139Z,3.10
2018-08-25T20:08:00.896Z,4.83
2018-08-25T20:10:29.361Z,5.40
2018-08-25T20:12:57.819Z,4.57
2018-08-25T20:15:26.376Z,5.87
2018-08-25T20:17:55.165Z,4.97
2018-08-25T20:20:24.359Z,4.73
2018-08-25T20:22:53.153Z,7.13
2018-08-25T20:25:21.639Z,4.73
2018-08-25T20:27:50.174Z,4.80
2018-08-25T20:30:18.670Z,4.07
2018-08-25T20:32:47.305Z,4.27
2018-08-25T20:35:16.863Z,7.00
2018-08-25T20:37:45.703Z,8.57
2018-08-25T20:40:14.154Z,6.43
2018-08-25T20:42:42.571Z,5.37
2018-08-25T20:45:11.146Z,5.63
2018-08-25T20:47:39.591Z,3.37
2018-08-25T20:50:08.232Z,5.10
2018-08-25T20:52:36.695Z,4.93
2018-08-25T20:55:05.270Z,1.63
2018-08-25T20:57:34.879Z,2.17
2018-08-25T21:00:04.008Z,2.00
2018-08-25T21:02:32.483Z,2.53
2018-08-25T21:05:01.644Z,1.13
2018-08-25T21:07:30.481Z,1.90
2018-08-25T21:09:58.918Z,2.03
2018-08-25T21:12:27.331Z,1.23
2018-08-25T21:14:56.339Z,5.00
2018-08-25T21:17:25.945Z,2.60
2018-08-25T21:19:55.335Z,1.63
2018-08-25T21:22:25.021Z,2.30
2018-08-25T21:24:54.554Z,2.17
2018-08-25T21:27:23.605Z,1.53
2018-08-25T21:29:52.520Z,2.63
2018-08-25T21:32:20.958Z,2.33
2018-08-25T21:34:49.710Z,2.53
2018-08-25T21:37:18.281Z,2.10
2018-08-25T21:39:47.025Z,3.10
2018-08-25T21:42:15.601Z,0.90
2018-08-25T21:44:44.227Z,1.40
2018-08-25T21:47:14.901Z,1.60
2018-08-25T21:49:43.525Z,1.63
2018-08-25T21:52:12.343Z,5.40
2018-08-25T21:54:41.435Z,11.10
2018-08-25T21:57:10.199Z,6.77
2018-08-25T21:59:39.979Z,3.60
2018-08-25T22:02:08.601Z,12.10
2018-08-25T22:04:37.921Z,7.17
2018-08-25T22:07:07.309Z,7.07
2018-08-25T22:09:36.168Z,8.57
2018-08-25T22:12:05.456Z,2.50
2018-08-25T22:14:36.087Z,5.07
2018-08-25T22:17:04.985Z,2.17
2018-08-25T22:19:34.705Z,2.33
2018-08-25T22:22:03.391Z,3.57
2018-08-25T22:24:32.255Z,4.77
2018-08-25T22:27:00.820Z,1.90
2018-08-25T22:29:29.498Z,2.70
2018-08-25T22:31:58.722Z,4.50
2018-08-25T22:34:27.746Z,2.67
2018-08-25T22:36:57.924Z,2.37
2018-08-25T22:39:26.857Z,2.77
2018-08-25T22:41:56.060Z,2.70
2018-08-25T22:44:25.014Z,3.00
2018-08-25T22:46:53.574Z,3.00
2018-08-25T22:49:22.534Z,2.10
2018-08-25T22:51:51.240Z,2.20
2018-08-25T22:54:20.374Z,1.73
2018-08-25T22:56:49.140Z,5.53
2018-08-25T22:59:17.803Z,1.80
2018-08-25T23:01:46.439Z,3.40
2018-08-25T23:04:16.032Z,2.33
2018-08-25T23:06:44.561Z,2.00
2018-08-25T23:09:13.423Z,3.57
2018-08-25T23:11:42.289Z,2.23
2018-08-25T23:14:11.211Z,3.00
2018-08-25T23:16:39.777Z,3.57
2018-08-25T23:19:08.270Z,2.70
2018-08-25T23:21:36.686Z,3.57
2018-08-25T23:24:05.130Z,3.30
2018-08-25T23:26:33.568Z,3.23
2018-08-25T23:29:08.739Z,4.57
2018-08-25T23:31:37.234Z,5.70
2018-08-25T23:34:05.691Z,8.23
2018-08-25T23:36:34.467Z,3.20
2018-08-25T23:39:02.965Z,3.40
2018-08-25T23:41:31.530Z,9.40
2018-08-25T23:44:00.011Z,4.27
2018-08-25T23:46:28.724Z,3.93
2018-08-25T23:48:57.150Z,3.60
2018-08-25T23:51:25.581Z,4.17
2018-08-25T23:53:54.085Z,4.10
2018-08-25T23:56:22.631Z,3.93
2018-08-25T23:58:51.155Z,3.80
